createdAt,value
2023-08-29T00:00:19.801Z,13.00
2023-08-29T00:01:19.824Z,12.97
2023-08-29T00:02:19.791Z,12.97
2023-08-29T00:03:19.802Z,12.96
2023-08-29T00:04:19.772Z,12.96
2023-08-29T00:05:19.769Z,12.96
2023-08-29T00:06:19.738Z,12.96
2023-08-29T00:07:19.712Z,12.97
2023-08-29T00:08:19.739Z,12.95
2023-08-29T00:09:19.689Z,12.96
2023-08-29T00:10:19.701Z,12.95
2023-08-29T00:11:19.669Z,12.97
2023-08-29T00:12:19.691Z,12.97
2023-08-29T00:13:19.656Z,12.97
2023-08-29T00:14:19.681Z,12.97
2023-08-29T00:15:19.636Z,13.00
2023-08-29T00:16:19.650Z,12.97
2023-08-29T00:17:19.624Z,12.96
2023-08-29T00:18:19.609Z,12.97
2023-08-29T00:19:19.699Z,12.96
2023-08-29T00:20:19.607Z,12.95
2023-08-29T00:21:19.560Z,12.93
2023-08-29T00:22:19.681Z,12.89
2023-08-29T00:23:19.580Z,12.87
2023-08-29T00:24:19.941Z,12.86
2023-08-29T00:25:19.515Z,12.83
2023-08-29T00:26:19.571Z,12.82
2023-08-29T00:27:19.508Z,12.79
2023-08-29T00:28:19.492Z,12.83
2023-08-29T00:29:19.504Z,12.82
2023-08-29T00:30:19.489Z,12.79
2023-08-29T00:31:19.478Z,12.79
2023-08-29T00:32:19.467Z,12.77
2023-08-29T00:33:19.470Z,12.78
2023-08-29T00:34:19.461Z,12.77
2023-08-29T00:35:19.424Z,12.74
2023-08-29T00:36:19.417Z,12.74
2023-08-29T00:37:19.462Z,12.77
2023-08-29T00:38:19.470Z,12.77
2023-08-29T00:39:19.705Z,12.77
2023-08-29T00:40:19.386Z,12.77
2023-08-29T00:41:19.376Z,12.74
2023-08-29T00:42:19.378Z,12.72
2023-08-29T00:43:19.371Z,12.71
2023-08-29T00:44:19.404Z,12.71
2023-08-29T00:45:19.351Z,12.70
2023-08-29T00:46:19.368Z,12.67
2023-08-29T00:47:19.300Z,12.64
2023-08-29T00:48:19.288Z,12.64
2023-08-29T00:49:19.292Z,12.62
2023-08-29T00:50:19.269Z,12.59
2023-08-29T00:51:19.261Z,12.56
2023-08-29T00:52:19.266Z,12.57
2023-08-29T00:53:19.389Z,12.54
2023-08-29T00:54:19.259Z,12.49
2023-08-29T00:55:19.337Z,12.47
2023-08-29T00:56:19.251Z,12.45
2023-08-29T00:57:19.193Z,12.45
2023-08-29T00:58:19.183Z,12.39
2023-08-29T00:59:19.159Z,12.39
2023-08-29T01:00:19.198Z,12.39
2023-08-29T01:01:19.213Z,12.37
2023-08-29T01:02:19.206Z,12.38
2023-08-29T01:03:19.194Z,12.34
2023-08-29T01:04:19.116Z,12.34
2023-08-29T01:05:19.133Z,12.31
2023-08-29T01:06:19.101Z,12.32
2023-08-29T01:07:19.081Z,12.28
2023-08-29T01:08:19.079Z,12.28
2023-08-29T01:09:19.069Z,12.29
2023-08-29T01:10:19.057Z,12.28
2023-08-29T01:11:19.201Z,12.27
2023-08-29T01:12:19.045Z,12.28
2023-08-29T01:13:19.007Z,12.27
2023-08-29T01:14:19.015Z,12.23
2023-08-29T01:15:19.069Z,12.21
2023-08-29T01:16:19.050Z,12.20
2023-08-29T01:17:18.966Z,12.20
2023-08-29T01:18:18.993Z,12.21
2023-08-29T01:19:18.981Z,12.20
2023-08-29T01:20:18.949Z,12.23
2023-08-29T01:21:19.108Z,12.23
2023-08-29T01:22:18.940Z,12.20
2023-08-29T01:23:18.900Z,12.20
2023-08-29T01:24:18.911Z,12.21
2023-08-29T01:25:18.925Z,12.20
2023-08-29T01:26:18.902Z,12.17
2023-08-29T01:27:18.853Z,12.17
2023-08-29T01:28:18.887Z,12.14
2023-08-29T01:29:18.843Z,12.13
2023-08-29T01:30:18.844Z,12.12
2023-08-29T01:31:18.875Z,12.09
2023-08-29T01:32:18.892Z,12.05
2023-08-29T01:33:18.855Z,12.05
2023-08-29T01:34:18.813Z,12.02
2023-08-29T01:35:18.788Z,12.02
2023-08-29T01:36:18.769Z,12.04
2023-08-29T01:37:18.752Z,12.04
2023-08-29T01:38:18.913Z,12.02
2023-08-29T01:39:18.750Z,12.01
2023-08-29T01:40:18.762Z,11.98
2023-08-29T01:41:18.732Z,11.96
2023-08-29T01:42:18.702Z,11.96
2023-08-29T01:43:18.718Z,11.99
2023-08-29T01:44:18.717Z,12.04
2023-08-29T01:45:18.711Z,12.07
2023-08-29T01:46:18.715Z,12.13
2023-08-29T01:47:18.741Z,12.13
2023-08-29T01:48:18.648Z,12.12
2023-08-29T01:49:18.630Z,12.13
2023-08-29T01:50:18.636Z,12.14
2023-08-29T01:51:18.610Z,12.14
2023-08-29T01:52:18.625Z,12.12
2023-08-29T01:53:18.602Z,12.12
2023-08-29T01:54:18.587Z,12.09
2023-08-29T01:55:18.655Z,12.07
2023-08-29T01:56:18.629Z,12.04
2023-08-29T01:57:18.549Z,12.01
2023-08-29T01:58:18.564Z,11.99
2023-08-29T01:59:18.519Z,11.96
2023-08-29T02:00:18.545Z,11.95
2023-08-29T02:01:23.390Z,11.91
2023-08-29T02:02:18.491Z,11.90
2023-08-29T02:03:18.490Z,11.88
2023-08-29T02:04:18.519Z,11.83
2023-08-29T02:05:18.492Z,11.80
2023-08-29T02:06:18.563Z,11.79
2023-08-29T02:07:18.443Z,11.79
2023-08-29T02:08:18.427Z,11.78
2023-08-29T02:09:18.394Z,11.76
2023-08-29T02:10:18.443Z,11.76
2023-08-29T02:11:18.395Z,11.75
2023-08-29T02:12:18.398Z,11.76
2023-08-29T02:13:18.360Z,11.83
2023-08-29T02:14:18.369Z,11.91
2023-08-29T02:15:18.366Z,11.98
2023-08-29T02:16:18.363Z,11.99
2023-08-29T02:17:18.317Z,11.99
2023-08-29T02:18:18.341Z,12.01
2023-08-29T02:19:18.310Z,11.99
2023-08-29T02:20:18.443Z,11.99
2023-08-29T02:21:18.304Z,11.96
2023-08-29T02:22:18.336Z,11.98
2023-08-29T02:23:18.347Z,11.94
2023-08-29T02:24:18.245Z,11.91
2023-08-29T02:25:18.255Z,11.90
2023-08-29T02:26:18.248Z,11.90
2023-08-29T02:27:18.266Z,11.88
2023-08-29T02:28:18.213Z,11.85
2023-08-29T02:29:18.244Z,11.86
2023-08-29T02:30:18.199Z,11.85
2023-08-29T02:31:18.213Z,11.82
2023-08-29T02:32:18.190Z,11.80
2023-08-29T02:33:18.202Z,11.78
2023-08-29T02:34:18.162Z,11.76
2023-08-29T02:35:18.123Z,11.73
2023-08-29T02:36:18.196Z,11.73
2023-08-29T02:37:18.101Z,11.70
2023-08-29T02:38:18.246Z,11.72
2023-08-29T02:39:18.133Z,11.70
2023-08-29T02:40:18.089Z,11.70
2023-08-29T02:41:18.090Z,11.70
2023-08-29T02:42:18.115Z,11.69
2023-08-29T02:43:18.061Z,11.69
2023-08-29T02:44:18.088Z,11.67
2023-08-29T02:45:18.076Z,11.70
2023-08-29T02:46:18.155Z,11.72
2023-08-29T02:47:18.001Z,11.73
2023-08-29T02:48:18.084Z,11.75
2023-08-29T02:49:17.978Z,11.76
2023-08-29T02:50:17.978Z,11.75
2023-08-29T02:51:17.960Z,11.75
2023-08-29T02:52:18.002Z,11.76
2023-08-29T02:53:17.965Z,11.76
2023-08-29T02:54:17.947Z,11.78
2023-08-29T02:55:17.910Z,11.76
2023-08-29T02:56:17.946Z,11.80
2023-08-29T02:57:17.907Z,11.78
2023-08-29T02:58:17.974Z,11.78
2023-08-29T02:59:17.882Z,11.78
2023-08-29T03:00:17.906Z,11.73
2023-08-29T03:01:17.889Z,11.75
2023-08-29T03:02:17.878Z,11.75
2023-08-29T03:03:18.105Z,11.78
2023-08-29T03:04:17.834Z,11.79
2023-08-29T03:05:17.815Z,11.80
2023-08-29T03:06:17.841Z,11.82
2023-08-29T03:07:17.778Z,11.82
2023-08-29T03:08:17.815Z,11.83
2023-08-29T03:09:17.759Z,11.83
2023-08-29T03:10:17.772Z,11.86
2023-08-29T03:11:17.741Z,11.85
2023-08-29T03:12:17.768Z,11.85
2023-08-29T03:13:17.729Z,11.86
2023-08-29T03:14:17.735Z,11.88
2023-08-29T03:15:17.723Z,11.90
2023-08-29T03:16:20.131Z,11.94
2023-08-29T03:17:17.712Z,11.91
2023-08-29T03:18:17.706Z,11.95
2023-08-29T03:19:17.687Z,11.95
2023-08-29T03:20:17.700Z,11.95
2023-08-29T03:21:17.653Z,11.94
2023-08-29T03:22:17.623Z,11.95
2023-08-29T03:23:17.718Z,11.91
2023-08-29T03:24:17.774Z,11.91
2023-08-29T03:25:17.595Z,11.94
2023-08-29T03:26:17.581Z,11.91
2023-08-29T03:27:17.764Z,11.91
2023-08-29T03:28:17.707Z,11.91
2023-08-29T03:29:17.748Z,11.91
2023-08-29T03:30:17.669Z,11.91
2023-08-29T03:31:17.604Z,11.91
2023-08-29T03:32:17.564Z,11.90
2023-08-29T03:33:17.716Z,11.86
2023-08-29T03:34:17.546Z,11.85
2023-08-29T03:35:17.595Z,11.86
2023-08-29T03:36:17.561Z,11.82
2023-08-29T03:37:17.713Z,11.82
2023-08-29T03:38:17.470Z,11.80
2023-08-29T03:39:18.121Z,11.85
2023-08-29T03:40:25.973Z,11.86
2023-08-29T03:41:20.177Z,11.86
2023-08-29T03:42:17.392Z,11.88
2023-08-29T03:43:18.117Z,11.88
2023-08-29T03:44:17.377Z,11.86
2023-08-29T03:45:17.398Z,11.85
2023-08-29T03:46:17.446Z,11.85
2023-08-29T03:47:17.337Z,11.86
2023-08-29T03:48:28.419Z,11.90
2023-08-29T03:49:18.330Z,11.94
2023-08-29T03:50:19.943Z,11.91
2023-08-29T03:51:17.312Z,11.94
2023-08-29T03:52:17.310Z,11.98
2023-08-29T03:53:17.289Z,11.99
2023-08-29T03:54:17.278Z,12.01
2023-08-29T03:55:17.300Z,12.02
2023-08-29T03:56:17.252Z,12.04
2023-08-29T03:57:17.277Z,12.05
2023-08-29T03:58:17.271Z,12.04
2023-08-29T03:59:17.247Z,12.05
2023-08-29T04:00:17.399Z,12.05
2023-08-29T04:01:17.219Z,12.04
2023-08-29T04:02:17.201Z,12.05
2023-08-29T04:03:17.374Z,12.09
2023-08-29T04:04:17.335Z,12.09
2023-08-29T04:05:17.514Z,12.09
2023-08-29T04:06:17.147Z,12.10
2023-08-29T04:07:17.171Z,12.12
2023-08-29T04:08:17.145Z,12.12
2023-08-29T04:09:17.125Z,12.12
2023-08-29T04:10:17.110Z,12.07
2023-08-29T04:11:17.089Z,12.10
2023-08-29T04:12:17.074Z,12.05
2023-08-29T04:13:17.105Z,12.07
2023-08-29T04:14:17.073Z,12.04
2023-08-29T04:15:17.099Z,12.04
2023-08-29T04:16:17.090Z,12.02
2023-08-29T04:17:17.085Z,12.04
2023-08-29T04:18:17.099Z,12.04
2023-08-29T04:19:17.024Z,12.07
2023-08-29T04:20:16.999Z,12.10
2023-08-29T04:21:16.993Z,12.13
2023-08-29T04:22:16.985Z,12.14
2023-08-29T04:23:16.998Z,12.12
2023-08-29T04:24:16.955Z,12.12
2023-08-29T04:25:16.968Z,12.09
2023-08-29T04:26:16.942Z,12.09
2023-08-29T04:27:16.941Z,12.09
2023-08-29T04:28:16.917Z,12.09
2023-08-29T04:29:16.906Z,12.05
2023-08-29T04:30:16.911Z,12.04
2023-08-29T04:31:16.919Z,12.02
2023-08-29T04:32:16.869Z,11.99
2023-08-29T04:33:16.900Z,12.01
2023-08-29T04:34:16.868Z,11.98
2023-08-29T04:35:16.860Z,12.02
2023-08-29T04:36:16.834Z,12.07
2023-08-29T04:37:16.820Z,12.14
2023-08-29T04:38:16.805Z,12.19
2023-08-29T04:39:16.860Z,12.20
2023-08-29T04:40:16.769Z,12.20
2023-08-29T04:41:16.813Z,12.20
2023-08-29T04:42:16.761Z,12.19
2023-08-29T04:43:16.774Z,12.19
2023-08-29T04:44:16.772Z,12.14
2023-08-29T04:45:16.750Z,12.16
2023-08-29T04:46:16.765Z,12.13
2023-08-29T04:47:16.718Z,12.14
2023-08-29T04:48:16.746Z,12.14
2023-08-29T04:49:16.710Z,12.17
2023-08-29T04:50:16.687Z,12.14
2023-08-29T04:51:16.687Z,12.16
2023-08-29T04:52:16.677Z,12.16
2023-08-29T04:53:16.670Z,12.17
2023-08-29T04:54:16.649Z,12.17
2023-08-29T04:55:16.643Z,12.20
2023-08-29T04:56:16.625Z,12.20
2023-08-29T04:57:16.607Z,12.21
2023-08-29T04:58:16.591Z,12.24
2023-08-29T04:59:16.598Z,12.27
2023-08-29T05:00:16.644Z,12.28
2023-08-29T05:01:16.628Z,12.29
2023-08-29T05:02:16.544Z,12.31
2023-08-29T05:03:16.662Z,12.31
2023-08-29T05:04:16.543Z,12.31
2023-08-29T05:05:16.512Z,12.35
2023-08-29T05:06:16.510Z,12.35
2023-08-29T05:07:16.522Z,12.37
2023-08-29T05:08:16.499Z,12.38
2023-08-29T05:09:18.437Z,12.38
2023-08-29T05:10:17.460Z,12.38
2023-08-29T05:11:16.471Z,12.38
2023-08-29T05:12:16.450Z,12.38
2023-08-29T05:13:16.430Z,12.37
2023-08-29T05:14:16.425Z,12.37
2023-08-29T05:15:16.441Z,12.38
2023-08-29T05:16:16.425Z,12.39
2023-08-29T05:17:16.386Z,12.39
2023-08-29T05:18:16.401Z,12.42
2023-08-29T05:19:16.380Z,12.45
2023-08-29T05:20:16.379Z,12.46
2023-08-29T05:21:16.363Z,12.49
2023-08-29T05:22:16.330Z,12.50
2023-08-29T05:23:16.346Z,12.53
2023-08-29T05:24:16.306Z,12.54
2023-08-29T05:25:16.318Z,12.57
2023-08-29T05:26:16.287Z,12.59
2023-08-29T05:27:16.289Z,12.59
2023-08-29T05:28:16.268Z,12.60
2023-08-29T05:29:16.280Z,12.64
2023-08-29T05:30:16.240Z,12.62
2023-08-29T05:31:16.360Z,12.67
2023-08-29T05:32:16.348Z,12.70
2023-08-29T05:33:16.235Z,12.72
2023-08-29T05:34:16.224Z,12.74
2023-08-29T05:35:16.203Z,12.75
2023-08-29T05:36:16.183Z,12.78
2023-08-29T05:37:16.182Z,12.79
2023-08-29T05:38:16.163Z,12.82
2023-08-29T05:39:16.149Z,12.85
2023-08-29T05:40:16.128Z,12.86
2023-08-29T05:41:16.139Z,12.87
2023-08-29T05:42:16.103Z,12.92
2023-08-29T05:43:16.119Z,12.93
2023-08-29T05:44:16.097Z,12.95
2023-08-29T05:45:16.093Z,12.97
2023-08-29T05:46:16.089Z,13.03
2023-08-29T05:47:16.098Z,13.01
2023-08-29T05:48:16.069Z,13.03
2023-08-29T05:49:16.054Z,13.07
2023-08-29T05:50:16.047Z,13.07
2023-08-29T05:51:16.074Z,13.08
2023-08-29T05:52:16.017Z,13.11
2023-08-29T05:53:16.029Z,13.11
2023-08-29T05:54:15.996Z,13.12
2023-08-29T05:55:16.013Z,13.14
2023-08-29T05:56:15.963Z,13.17
2023-08-29T05:57:15.992Z,13.19
2023-08-29T05:58:15.938Z,13.20
2023-08-29T05:59:15.967Z,13.23
2023-08-29T06:00:15.935Z,13.26
2023-08-29T06:01:15.983Z,13.26
2023-08-29T06:02:15.913Z,13.30
2023-08-29T06:03:16.021Z,13.32
2023-08-29T06:04:15.871Z,13.36
2023-08-29T06:05:15.893Z,13.38
2023-08-29T06:06:15.850Z,13.39
2023-08-29T06:07:15.861Z,13.39
2023-08-29T06:08:19.786Z,13.44
2023-08-29T06:09:15.833Z,13.45
2023-08-29T06:10:15.842Z,13.46
2023-08-29T06:11:15.815Z,13.49
2023-08-29T06:12:15.799Z,13.51
2023-08-29T06:13:15.808Z,13.51
2023-08-29T06:14:15.784Z,13.54
2023-08-29T06:15:15.773Z,13.57
2023-08-29T06:16:15.783Z,13.59
2023-08-29T06:17:15.771Z,13.63
2023-08-29T06:18:15.788Z,13.64
2023-08-29T06:19:15.740Z,13.67
2023-08-29T06:20:15.699Z,13.69
2023-08-29T06:21:15.707Z,13.73
2023-08-29T06:22:15.722Z,13.73
2023-08-29T06:23:15.701Z,13.77
2023-08-29T06:24:15.767Z,13.79
2023-08-29T06:25:15.673Z,13.82
2023-08-29T06:26:15.689Z,13.89
2023-08-29T06:27:15.642Z,13.89
2023-08-29T06:28:15.618Z,13.92
2023-08-29T06:29:15.645Z,13.96
2023-08-29T06:30:15.577Z,13.99
2023-08-29T06:31:15.626Z,14.00
2023-08-29T06:32:15.624Z,14.06
2023-08-29T06:33:15.792Z,14.07
2023-08-29T06:34:15.556Z,14.10
2023-08-29T06:35:15.564Z,14.12
2023-08-29T06:36:15.530Z,14.15
2023-08-29T06:37:15.556Z,14.17
2023-08-29T06:38:15.495Z,14.22
2023-08-29T06:39:15.510Z,14.27
2023-08-29T06:40:15.490Z,14.32
2023-08-29T06:41:15.481Z,14.33
2023-08-29T06:42:15.522Z,14.36
2023-08-29T06:43:15.463Z,14.40
2023-08-29T06:44:15.469Z,14.43
2023-08-29T06:45:15.446Z,14.50
2023-08-29T06:46:15.530Z,14.52
2023-08-29T06:47:15.423Z,14.55
2023-08-29T06:48:15.415Z,14.61
2023-08-29T06:49:15.411Z,14.64
2023-08-29T06:50:15.381Z,14.70
2023-08-29T06:51:15.422Z,14.75
2023-08-29T06:52:15.369Z,14.80
2023-08-29T06:53:15.359Z,14.84
2023-08-29T06:54:15.360Z,14.89
2023-08-29T06:55:15.363Z,14.91
2023-08-29T06:56:15.309Z,14.94
2023-08-29T06:57:15.339Z,14.95
2023-08-29T06:58:15.303Z,15.01
2023-08-29T06:59:15.292Z,14.99
2023-08-29T07:00:15.332Z,15.03
2023-08-29T07:01:15.354Z,15.03
2023-08-29T07:02:15.261Z,15.07
2023-08-29T07:03:15.345Z,15.07
2023-08-29T07:04:15.273Z,15.09
2023-08-29T07:05:15.238Z,15.14
2023-08-29T07:06:15.196Z,15.16
2023-08-29T07:07:15.198Z,15.20
2023-08-29T07:08:15.190Z,15.20
2023-08-29T07:09:15.220Z,15.27
2023-08-29T07:10:15.173Z,15.29
2023-08-29T07:11:15.176Z,15.32
2023-08-29T07:12:15.138Z,15.34
2023-08-29T07:13:15.144Z,15.35
2023-08-29T07:14:15.120Z,15.39
2023-08-29T07:15:15.146Z,15.41
2023-08-29T07:16:15.163Z,15.47
2023-08-29T07:17:15.194Z,15.47
2023-08-29T07:18:15.141Z,15.50
2023-08-29T07:19:15.080Z,15.49
2023-08-29T07:20:15.068Z,15.51
2023-08-29T07:21:15.072Z,15.54
2023-08-29T07:23:15.059Z,15.64
2023-08-29T07:24:15.813Z,15.71
2023-08-29T07:25:15.009Z,15.78
2023-08-29T07:26:14.987Z,15.87
2023-08-29T07:27:14.995Z,15.92
2023-08-29T07:28:15.007Z,15.94
2023-08-29T07:29:14.989Z,15.96
2023-08-29T07:30:14.975Z,16.01
2023-08-29T07:31:15.000Z,16.01
2023-08-29T07:32:14.934Z,16.05
2023-08-29T07:33:14.918Z,16.08
2023-08-29T07:34:14.908Z,16.09
2023-08-29T07:35:15.060Z,16.12
2023-08-29T07:36:14.897Z,16.12
2023-08-29T07:37:14.874Z,16.15
2023-08-29T07:38:14.881Z,16.17
2023-08-29T07:39:14.864Z,16.15
2023-08-29T07:40:14.860Z,16.12
2023-08-29T07:41:14.827Z,16.14
2023-08-29T07:42:14.836Z,16.20
2023-08-29T07:43:14.807Z,16.23
2023-08-29T07:44:14.805Z,16.25
2023-08-29T07:45:14.814Z,16.28
2023-08-29T07:46:14.831Z,16.33
2023-08-29T07:47:16.121Z,16.39
2023-08-29T07:48:14.835Z,16.43
2023-08-29T07:49:14.735Z,16.48
2023-08-29T07:50:14.766Z,16.49
2023-08-29T07:51:14.734Z,16.53
2023-08-29T07:52:14.718Z,16.57
2023-08-29T07:53:14.721Z,16.63
2023-08-29T07:54:14.788Z,16.68
2023-08-29T07:55:14.678Z,16.73
2023-08-29T07:56:14.688Z,16.76
2023-08-29T07:57:14.681Z,16.73
2023-08-29T07:58:14.667Z,16.76
2023-08-29T07:59:14.649Z,16.81
2023-08-29T08:00:14.673Z,16.81
2023-08-29T08:01:14.653Z,16.78
2023-08-29T08:02:14.616Z,16.78
2023-08-29T08:03:14.595Z,16.73
2023-08-29T08:04:14.648Z,16.68
2023-08-29T08:05:14.581Z,16.71
2023-08-29T08:06:14.644Z,16.76
2023-08-29T08:07:14.547Z,16.82
2023-08-29T08:08:14.553Z,16.88
2023-08-29T08:09:14.529Z,16.96
2023-08-29T08:10:14.545Z,17.01
2023-08-29T08:11:14.509Z,17.06
2023-08-29T08:12:14.501Z,17.14
2023-08-29T08:13:14.525Z,17.19
2023-08-29T08:14:14.495Z,17.26
2023-08-29T08:15:14.458Z,17.31
2023-08-29T08:16:14.535Z,17.31
2023-08-29T08:17:14.477Z,17.36
2023-08-29T08:18:14.490Z,17.38
2023-08-29T08:19:14.597Z,17.46
2023-08-29T08:20:14.448Z,17.52
2023-08-29T08:21:14.436Z,17.59
2023-08-29T08:22:14.409Z,17.66
2023-08-29T08:23:14.371Z,17.70
2023-08-29T08:24:14.369Z,17.72
2023-08-29T08:25:14.370Z,17.75
2023-08-29T08:26:14.356Z,17.81
2023-08-29T08:27:14.333Z,17.87
2023-08-29T08:28:14.331Z,17.90
2023-08-29T08:29:14.328Z,17.93
2023-08-29T08:30:14.333Z,17.97
2023-08-29T08:31:14.276Z,18.03
2023-08-29T08:32:14.289Z,18.03
2023-08-29T08:33:14.329Z,18.10
2023-08-29T08:34:14.266Z,18.08
2023-08-29T08:35:14.282Z,18.12
2023-08-29T08:36:14.273Z,18.15
2023-08-29T08:37:14.313Z,18.15
2023-08-29T08:38:22.028Z,18.08
2023-08-29T08:39:14.203Z,17.86
2023-08-29T08:40:14.198Z,17.71
2023-08-29T08:41:14.179Z,17.62
2023-08-29T08:42:14.167Z,17.62
2023-08-29T08:43:14.201Z,17.64
2023-08-29T08:44:14.183Z,17.71
2023-08-29T08:45:14.140Z,17.82
2023-08-29T08:46:14.150Z,17.89
2023-08-29T08:47:14.106Z,17.96
2023-08-29T08:48:14.128Z,18.03
2023-08-29T08:49:14.100Z,18.08
2023-08-29T08:50:14.108Z,18.10
2023-08-29T08:51:14.083Z,18.17
2023-08-29T08:52:14.068Z,18.25
2023-08-29T08:53:14.046Z,18.32
2023-08-29T08:54:14.045Z,18.33
2023-08-29T08:55:14.040Z,18.30
2023-08-29T08:56:14.018Z,18.27
2023-08-29T08:57:13.996Z,18.26
2023-08-29T08:58:14.010Z,18.11
2023-08-29T08:59:13.980Z,18.02
2023-08-29T09:00:13.976Z,18.03
2023-08-29T09:01:13.975Z,18.08
2023-08-29T09:02:13.986Z,18.12
2023-08-29T09:03:13.988Z,18.25
2023-08-29T09:04:13.950Z,18.26
2023-08-29T09:05:13.908Z,18.26
2023-08-29T09:06:14.149Z,18.32
2023-08-29T09:07:13.911Z,18.39
2023-08-29T09:08:13.907Z,18.45
2023-08-29T09:09:13.879Z,18.55
2023-08-29T09:10:13.881Z,18.66
2023-08-29T09:11:13.850Z,18.69
2023-08-29T09:12:13.850Z,18.69
2023-08-29T09:13:13.834Z,18.69
2023-08-29T09:14:14.169Z,18.73
2023-08-29T09:15:13.814Z,18.67
2023-08-29T09:16:13.838Z,18.73
2023-08-29T09:17:13.797Z,18.72
2023-08-29T09:18:13.786Z,18.75
2023-08-29T09:19:13.789Z,18.73
2023-08-29T09:20:13.785Z,18.81
2023-08-29T09:21:13.742Z,18.73
2023-08-29T09:22:13.746Z,18.63
2023-08-29T09:23:13.713Z,18.58
2023-08-29T09:24:13.737Z,18.55
2023-08-29T09:25:13.694Z,18.62
2023-08-29T09:26:13.726Z,18.65
2023-08-29T09:27:13.680Z,18.69
2023-08-29T09:28:13.676Z,18.76
2023-08-29T09:29:13.653Z,18.84
2023-08-29T09:30:13.655Z,18.88
2023-08-29T09:31:13.660Z,18.90
2023-08-29T09:32:13.630Z,18.91
2023-08-29T09:33:13.622Z,18.98
2023-08-29T09:34:13.620Z,19.06
2023-08-29T09:35:13.597Z,19.04
2023-08-29T09:36:13.591Z,18.95
2023-08-29T09:37:13.578Z,18.94
2023-08-29T09:38:13.734Z,19.00
2023-08-29T09:39:13.567Z,19.00
2023-08-29T09:40:30.748Z,18.88
2023-08-29T09:41:14.535Z,18.94
2023-08-29T09:42:13.527Z,19.10
2023-08-29T09:43:13.502Z,19.23
2023-08-29T09:44:13.513Z,19.07
2023-08-29T09:45:13.487Z,18.99
2023-08-29T09:46:13.543Z,18.98
2023-08-29T09:47:13.464Z,19.02
2023-08-29T09:48:13.623Z,19.14
2023-08-29T09:49:13.433Z,19.33
2023-08-29T09:50:13.460Z,19.47
2023-08-29T09:51:13.414Z,19.54
2023-08-29T09:52:13.438Z,19.58
2023-08-29T09:53:13.421Z,19.69
2023-08-29T09:54:13.403Z,19.80
2023-08-29T09:55:13.383Z,19.83
2023-08-29T09:56:13.374Z,19.81
2023-08-29T09:57:13.372Z,19.84
2023-08-29T09:58:13.380Z,19.74
2023-08-29T09:59:13.358Z,19.68
2023-08-29T10:00:13.438Z,19.76
2023-08-29T10:01:13.352Z,19.86
2023-08-29T10:02:13.328Z,19.88
2023-08-29T10:03:13.341Z,19.86
2023-08-29T10:04:13.285Z,19.84
2023-08-29T10:05:13.268Z,19.83
2023-08-29T10:06:13.267Z,19.84
2023-08-29T10:07:13.255Z,19.88
2023-08-29T10:08:13.245Z,19.96
2023-08-29T10:09:13.309Z,19.92
2023-08-29T10:10:13.231Z,19.94
2023-08-29T10:11:13.205Z,20.01
2023-08-29T10:12:13.228Z,20.03
2023-08-29T10:13:13.199Z,20.10
2023-08-29T10:14:13.186Z,20.24
2023-08-29T10:15:13.159Z,20.41
2023-08-29T10:16:13.165Z,20.54
2023-08-29T10:17:25.319Z,20.59
2023-08-29T10:18:14.142Z,20.61
2023-08-29T10:19:13.122Z,20.72
2023-08-29T10:20:13.125Z,20.80
2023-08-29T10:21:13.107Z,20.82
2023-08-29T10:22:13.105Z,20.88
2023-08-29T10:23:13.076Z,20.95
2023-08-29T10:24:13.089Z,20.94
2023-08-29T10:25:13.053Z,20.70
2023-08-29T10:26:13.068Z,20.69
2023-08-29T10:27:13.035Z,20.43
2023-08-29T10:28:13.054Z,20.51
2023-08-29T10:29:13.006Z,20.59
2023-08-29T10:30:13.002Z,20.67
2023-08-29T10:31:12.995Z,20.59
2023-08-29T10:32:12.995Z,20.58
2023-08-29T10:33:13.055Z,20.69
2023-08-29T10:34:12.981Z,20.74
2023-08-29T10:35:12.944Z,20.80
2023-08-29T10:36:12.949Z,20.67
2023-08-29T10:37:12.932Z,20.57
2023-08-29T10:38:14.860Z,20.57
2023-08-29T10:39:12.913Z,20.59
2023-08-29T10:40:13.081Z,20.73
2023-08-29T10:41:12.896Z,20.89
2023-08-29T10:42:12.894Z,21.04
2023-08-29T10:43:12.861Z,21.17
2023-08-29T10:44:12.870Z,21.28
2023-08-29T10:45:12.854Z,21.19
2023-08-29T10:46:12.867Z,21.13
2023-08-29T10:47:12.832Z,21.17
2023-08-29T10:48:12.834Z,21.17
2023-08-29T10:49:12.838Z,21.19
2023-08-29T10:50:12.808Z,21.16
2023-08-29T10:51:12.859Z,21.06
2023-08-29T10:52:12.782Z,21.12
2023-08-29T10:53:12.760Z,21.22
2023-08-29T10:54:12.815Z,21.25
2023-08-29T10:55:12.747Z,21.31
2023-08-29T10:56:12.741Z,21.28
2023-08-29T10:57:12.709Z,21.27
2023-08-29T10:58:12.732Z,21.24
2023-08-29T10:59:12.734Z,21.32
2023-08-29T11:00:12.774Z,21.31
2023-08-29T11:01:12.687Z,21.31
2023-08-29T11:02:12.693Z,21.34
2023-08-29T11:03:12.679Z,21.35
2023-08-29T11:04:12.732Z,21.32
2023-08-29T11:05:12.639Z,21.19
2023-08-29T11:06:12.657Z,20.99
2023-08-29T11:07:12.605Z,20.87
2023-08-29T11:08:12.645Z,20.74
2023-08-29T11:09:12.590Z,20.66
2023-08-29T11:10:12.652Z,20.42
2023-08-29T11:11:12.572Z,20.08
2023-08-29T11:12:12.581Z,20.08
2023-08-29T11:13:12.602Z,20.13
2023-08-29T11:14:12.552Z,20.23
2023-08-29T11:15:12.527Z,20.26
2023-08-29T11:16:12.566Z,20.36
2023-08-29T11:17:12.525Z,20.52
2023-08-29T11:18:12.685Z,20.58
2023-08-29T11:19:12.513Z,20.74
2023-08-29T11:20:12.507Z,20.99
2023-08-29T11:21:12.463Z,21.16
2023-08-29T11:22:12.495Z,21.31
2023-08-29T11:23:12.452Z,21.46
2023-08-29T11:24:17.098Z,21.54
2023-08-29T11:25:13.418Z,21.52
2023-08-29T11:26:12.465Z,21.53
2023-08-29T11:27:12.406Z,21.49
2023-08-29T11:28:12.416Z,21.22
2023-08-29T11:29:12.383Z,21.29
2023-08-29T11:31:12.394Z,21.37
2023-08-29T11:32:12.365Z,21.35
2023-08-29T11:33:12.334Z,21.37
2023-08-29T11:34:12.339Z,21.52
2023-08-29T11:35:12.343Z,21.64
2023-08-29T11:36:12.319Z,21.37
2023-08-29T11:37:12.308Z,21.14
2023-08-29T11:38:12.293Z,21.07
2023-08-29T11:39:12.280Z,21.07
2023-08-29T11:40:12.982Z,21.13
2023-08-29T11:41:29.401Z,21.13
2023-08-29T11:42:20.761Z,21.12
2023-08-29T11:43:48.310Z,21.17
2023-08-29T11:45:00.678Z,21.25
2023-08-29T11:45:45.254Z,21.27
2023-08-29T11:46:13.228Z,21.16
2023-08-29T11:47:12.201Z,21.09
2023-08-29T11:48:12.264Z,21.16
2023-08-29T11:49:12.162Z,21.34
2023-08-29T11:50:12.156Z,21.58
2023-08-29T11:51:12.149Z,21.67
2023-08-29T11:52:12.132Z,21.68
2023-08-29T11:53:12.135Z,21.82
2023-08-29T11:54:12.112Z,21.98
2023-08-29T11:55:12.133Z,21.84
2023-08-29T11:56:12.090Z,21.69
2023-08-29T11:57:12.125Z,21.53
2023-08-29T11:58:12.067Z,21.37
2023-08-29T11:59:12.093Z,21.34
2023-08-29T12:00:12.208Z,21.34
2023-08-29T12:01:12.086Z,21.44
2023-08-29T12:02:12.029Z,21.40
2023-08-29T12:03:12.023Z,21.52
2023-08-29T12:04:12.066Z,21.65
2023-08-29T12:05:12.000Z,21.74
2023-08-29T12:06:11.976Z,21.84
2023-08-29T12:07:11.981Z,21.32
2023-08-29T12:08:11.979Z,21.03
2023-08-29T12:09:11.955Z,21.13
2023-08-29T12:10:11.933Z,21.25
2023-08-29T12:11:11.950Z,21.43
2023-08-29T12:12:11.969Z,21.64
2023-08-29T12:13:11.913Z,21.90
2023-08-29T12:14:11.901Z,22.12
2023-08-29T12:15:12.163Z,22.25
2023-08-29T12:16:11.928Z,22.30
2023-08-29T12:17:11.871Z,22.27
2023-08-29T12:18:11.858Z,22.33
2023-08-29T12:19:11.863Z,22.20
2023-08-29T12:20:11.835Z,21.75
2023-08-29T12:21:11.835Z,21.61
2023-08-29T12:22:11.804Z,21.49
2023-08-29T12:23:11.832Z,21.40
2023-08-29T12:24:11.844Z,21.17
2023-08-29T12:25:11.795Z,21.06
2023-08-29T12:26:11.784Z,21.17
2023-08-29T12:27:11.801Z,21.42
2023-08-29T12:28:11.746Z,21.61
2023-08-29T12:29:11.751Z,21.64
2023-08-29T12:30:11.747Z,21.67
2023-08-29T12:31:11.822Z,21.52
2023-08-29T12:32:11.716Z,21.69
2023-08-29T12:33:11.699Z,21.86
2023-08-29T12:34:11.681Z,22.00
2023-08-29T12:35:11.699Z,22.22
2023-08-29T12:36:11.681Z,22.39
2023-08-29T12:37:11.704Z,22.45
2023-08-29T12:38:11.652Z,22.45
2023-08-29T12:39:11.684Z,22.42
2023-08-29T12:40:11.638Z,22.45
2023-08-29T12:41:11.627Z,22.55
2023-08-29T12:42:11.606Z,22.76
2023-08-29T12:43:11.672Z,22.97
2023-08-29T12:44:11.582Z,23.17
2023-08-29T12:45:11.581Z,23.25
2023-08-29T12:46:11.608Z,23.32
2023-08-29T12:47:11.570Z,23.25
2023-08-29T12:48:11.592Z,23.12
2023-08-29T12:49:11.554Z,23.10
2023-08-29T12:50:13.448Z,22.90
2023-08-29T12:51:11.520Z,22.94
2023-08-29T12:52:11.510Z,22.95
2023-08-29T12:53:11.505Z,22.65
2023-08-29T12:54:11.501Z,22.40